アシガバート の空港の天気 - METARとTAF

アシガバート空港 ( UTAA / ASB ) - トルクメニスタン アシガバート
飛行場実況気象(Metar)
観測時間05/25 15:00 +05 (05/25 10:00 UTC)
風向・風速北北西 3m/s
視程9000m
天気現象
なし
気温33℃
湿度24%
気圧1011hPa
METARUTAA 251000Z 33006KT 250V050 9000 NSC 33/10 Q1011 NOSIG
過去の天気等 Google飛行場航空写真 Wunderground天気予報

過去48時間のMETAR

飛行場予報(TAF)
発表時間: 5/25 09:30 +05 (5/25 04:30 UTC)
予報対象時間: 25日11時 +05 ~ 26日11時 +05
風向・風速西北西 8m/s
視程5,000m
全天の4割程度の雲 雲底高度 910m
全天の4割程度の積乱雲 雲底高度 1,520m
25日11時 +05 ~ 25日19時 +05 に一時的に
風向・風速北北西 8m/s 瞬間風速 13m/s
視程3,000m
天気現象低い風塵
25日14時 +05 ~ 25日23時 +05 に 確率 40% で一時的に
風向・風速不定 13m/s
視程3,000m
天気現象弱い雷雨
TAF UTAA 250430Z 2506/2606 30016KT 5000 SCT030 SCT050CB 530009
TEMPO 2506/2514 33016G26KT 3000 DRDU
PROB40 TEMPO 2509/2518 VRB26KT 3000 -TSRA